LIED/DCI METAR and TAF weather

Enter ICAO airport designator
Station Type Date Time Source
LIED METAR 2020/03/31 04:55 UTC NOAA

LIED 310455Z 32003KT 8000 3000W SCT001 05/02 Q1013 RMK BKN SCT200 VIS MIN 3000W WIND THR35 30002KT WIND THR17 /////KT YLO


Station Type Date Time Source
LIED Decoded METAR 2020/03/31 04:55 UTC NOAA

Decimomannu, Italy (LIED) 39-21N 008-58E 28M
Mar 31, 2020 - 12:55 AM EDT / 2020.03.31 0455 UTC
Wind: from the NW (320 degrees) at 3 MPH (3 KT):0
Visibility: 4 mile(s):0
Sky conditions: partly cloudy
Temperature: 41 F (5 C)
Dew Point: 35 F (2 C)
Relative Humidity: 80%
Pressure (altimeter): 29.91 in. Hg (1013 hPa)
ob: LIED 310455Z 32003KT 8000 3000W SCT001 05/02 Q1013 RMK BKN SCT200 VIS MIN 3000W WIND THR35 30002KT WIND THR17 /////KT YLO
cycle: 5

Station Type Date Time Source
LIED TAF 2015/03/04 18:18 UTC NOAA

TAF TAF LIED 041700Z 0418/0506 33014KT 9999 SCT020 BKN040 BKN060
TEMPO 0420/0502 33020KT 5000 RA OR SHRA FEW022CB

Example: see airport list